Time;durP1;ratioP1;P1;durP2;ratioP2;P2;SDS_P1;SDS_P2;PMS_P1;PMS_P2;Temp;Humidity;BMP_temperature;BMP_pressure;BME280_temperature;BME280_humidity;BME280_pressure;Samples;Min_cycle;Max_cycle;Signal;HPM_P1;HPM_P2
2023/06/07 00:00:56;;;;;;;1.92;1.83;;;26.00;35.40;;;;;;5065980;28;45241;-71
2023/06/07 00:03:23;;;;;;;3.40;2.20;;;26.00;35.40;;;;;;5066741;28;45482;-71
2023/06/07 00:05:50;;;;;;;2.17;1.98;;;26.00;35.50;;;;;;5066483;28;45506;-71
2023/06/07 00:08:18;;;;;;;2.20;2.00;;;25.90;35.40;;;;;;5066632;28;45206;-72
2023/06/07 00:10:46;;;;;;;2.30;2.10;;;25.90;35.40;;;;;;5065768;28;45343;-72
2023/06/07 00:13:13;;;;;;;2.05;1.92;;;25.90;35.40;;;;;;5066580;28;45437;-72
2023/06/07 00:15:40;;;;;;;2.63;2.10;;;25.90;35.50;;;;;;5066132;28;46251;-71
2023/06/07 00:18:07;;;;;;;2.30;2.10;;;25.90;35.60;;;;;;5065900;28;45288;-71
2023/06/07 00:20:35;;;;;;;2.13;1.92;;;25.90;35.60;;;;;;5065947;28;45340;-72
2023/06/07 00:23:04;;;;;;;2.20;1.90;;;25.80;35.60;;;;;;5066387;28;45335;-72
2023/06/07 00:25:31;;;;;;;2.30;1.90;;;25.80;35.60;;;;;;5065882;28;45367;-72
2023/06/07 00:27:59;;;;;;;2.15;2.05;;;25.80;35.70;;;;;;5065947;28;45331;-71
2023/06/07 00:30:26;;;;;;;2.22;2.03;;;25.70;35.60;;;;;;5065964;28;45173;-71
2023/06/07 00:32:53;;;;;;;2.38;2.17;;;25.70;35.60;;;;;;5066258;28;45432;-70
2023/06/07 00:35:20;;;;;;;2.40;2.20;;;25.70;35.70;;;;;;5065989;28;46344;-71
2023/06/07 00:37:47;;;;;;;2.08;1.98;;;25.70;35.80;;;;;;5065875;28;45257;-71
2023/06/07 00:40:14;;;;;;;2.38;2.15;;;25.60;35.80;;;;;;5065739;28;44805;-71
2023/06/07 00:42:41;;;;;;;2.17;1.90;;;25.60;35.80;;;;;;5066034;28;45331;-70
2023/06/07 00:45:10;;;;;;;2.15;1.95;;;25.60;35.90;;;;;;5064933;28;46229;-70
2023/06/07 00:47:38;;;;;;;2.85;2.10;;;25.60;36.00;;;;;;5065111;28;45253;-70
2023/06/07 00:50:05;;;;;;;1.90;1.75;;;25.50;36.00;;;;;;5066015;28;45373;-71
2023/06/07 00:52:32;;;;;;;2.45;2.20;;;25.50;36.00;;;;;;5065976;28;45313;-71
2023/06/07 00:55:01;;;;;;;1.92;1.83;;;25.50;36.10;;;;;;5065618;28;45388;-70
2023/06/07 00:57:27;;;;;;;2.30;2.10;;;25.40;36.10;;;;;;5065921;28;45386;-71
2023/06/07 00:59:54;;;;;;;2.22;2.03;;;25.40;36.10;;;;;;5065581;28;45249;-71
2023/06/07 01:02:23;;;;;;;2.30;1.98;;;25.40;36.20;;;;;;5065537;28;45364;-70
2023/06/07 01:04:51;;;;;;;3.00;2.17;;;25.40;36.30;;;;;;5065617;28;46295;-71
2023/06/07 01:07:24;;;;;;;2.05;1.95;;;25.30;36.30;;;;;;5065531;28;45323;-70
2023/06/07 01:09:51;;;;;;;2.30;2.10;;;25.30;36.30;;;;;;5065923;28;45473;-71
2023/06/07 01:12:18;;;;;;;2.50;2.30;;;25.30;36.30;;;;;;5065699;28;45323;-70
2023/06/07 01:14:45;;;;;;;2.33;2.13;;;25.30;36.40;;;;;;5065651;28;46652;-71
2023/06/07 01:17:12;;;;;;;2.63;2.38;;;25.20;36.40;;;;;;5065389;28;45537;-71
2023/06/07 01:19:42;;;;;;;2.38;2.17;;;25.20;36.40;;;;;;5066101;28;45274;-71
2023/06/07 01:22:10;;;;;;;2.28;2.13;;;25.20;36.40;;;;;;5066105;28;45321;-70
2023/06/07 01:24:39;;;;;;;2.38;2.20;;;25.20;36.40;;;;;;5069125;28;45656;-70
2023/06/07 01:27:07;;;;;;;2.25;2.05;;;25.20;36.50;;;;;;5068586;28;45396;-70
2023/06/07 01:29:34;;;;;;;1.80;1.70;;;25.20;36.50;;;;;;5068672;28;45372;-72
2023/06/07 01:32:03;;;;;;;2.10;2.00;;;25.20;36.50;;;;;;5069193;28;45311;-72
2023/06/07 01:34:30;;;;;;;2.15;1.95;;;25.10;36.50;;;;;;5068533;28;46787;-70
2023/06/07 01:36:57;;;;;;;1.90;1.80;;;25.10;36.50;;;;;;5068000;28;45249;-70
2023/06/07 01:39:24;;;;;;;2.10;1.90;;;25.10;36.60;;;;;;5068982;28;45230;-70
2023/06/07 01:41:52;;;;;;;2.10;1.90;;;25.10;36.50;;;;;;5068962;28;45416;-71
2023/06/07 01:44:20;;;;;;;2.15;2.05;;;25.10;36.50;;;;;;5068356;28;46601;-70
2023/06/07 01:46:46;;;;;;;3.45;2.20;;;25.00;37.20;;;;;;5068345;28;45470;-70
2023/06/07 01:49:13;;;;;;;2.45;2.25;;;25.00;36.50;;;;;;5068649;28;45407;-70
2023/06/07 01:51:40;;;;;;;2.30;2.10;;;25.00;36.60;;;;;;5068772;28;45408;-71
2023/06/07 01:54:07;;;;;;;2.15;1.98;;;25.00;36.60;;;;;;5068374;28;46345;-70
2023/06/07 01:56:37;;;;;;;2.05;1.95;;;25.00;36.60;;;;;;5068355;28;45494;-71
2023/06/07 01:59:17;;;;;;;2.25;2.10;;;25.00;36.70;;;;;;5068513;28;45331;-71
2023/06/07 02:01:49;;;;;;;2.33;2.13;;;24.90;36.70;;;;;;5068825;28;45413;-70
2023/06/07 02:04:17;;;;;;;2.58;2.35;;;25.00;36.70;;;;;;5068020;28;45228;-70
2023/06/07 02:06:45;;;;;;;1.92;1.83;;;24.90;36.70;;;;;;5068457;28;45418;-71
2023/06/07 02:09:12;;;;;;;2.50;2.30;;;24.90;36.80;;;;;;5068403;28;45403;-70
2023/06/07 02:11:39;;;;;;;2.92;2.10;;;24.90;36.80;;;;;;5068572;28;45320;-71
2023/06/07 02:14:07;;;;;;;2.05;1.85;;;24.90;36.80;;;;;;5068128;28;46374;-71
2023/06/07 02:16:35;;;;;;;2.65;2.03;;;24.90;36.80;;;;;;5068149;28;45486;-71
2023/06/07 02:19:06;;;;;;;2.70;2.30;;;24.80;36.80;;;;;;5068283;28;45363;-71
2023/06/07 02:21:33;;;;;;;1.70;1.60;;;24.80;36.90;;;;;;5068380;28;45302;-71
2023/06/07 02:24:00;;;;;;;3.13;1.85;;;24.80;36.90;;;;;;5068026;28;45416;-71
2023/06/07 02:26:27;;;;;;;2.20;2.00;;;24.80;36.90;;;;;;5068000;28;45265;-71
2023/06/07 02:28:54;;;;;;;2.95;2.30;;;24.70;36.90;;;;;;5067220;28;45273;-71
2023/06/07 02:31:22;;;;;;;2.70;2.00;;;24.70;37.00;;;;;;5068362;28;45293;-70
2023/06/07 02:33:49;;;;;;;2.88;2.20;;;24.70;37.00;;;;;;5066941;28;46919;-70
2023/06/07 02:36:17;;;;;;;2.17;2.00;;;24.70;37.10;;;;;;5067894;28;45490;-70
2023/06/07 02:38:44;;;;;;;1.95;1.85;;;24.70;37.10;;;;;;5067113;28;45307;-70
2023/06/07 02:41:11;;;;;;;2.30;2.10;;;24.70;37.20;;;;;;5067769;28;45302;-70
2023/06/07 02:43:38;;;;;;;2.38;2.17;;;24.70;37.10;;;;;;5067517;28;45358;-71
2023/06/07 02:46:06;;;;;;;2.17;2.03;;;24.70;37.20;;;;;;5067317;28;45327;-71
2023/06/07 02:48:35;;;;;;;2.13;2.00;;;24.60;37.20;;;;;;5067686;28;45367;-70
2023/06/07 02:51:02;;;;;;;2.00;1.90;;;24.60;37.20;;;;;;5067731;28;45618;-70
2023/06/07 02:53:30;;;;;;;2.20;2.00;;;24.60;37.20;;;;;;5067264;28;46344;-70
2023/06/07 02:55:57;;;;;;;2.13;1.92;;;24.60;37.30;;;;;;5067264;28;45401;-71
2023/06/07 02:58:24;;;;;;;1.98;1.85;;;24.50;37.30;;;;;;5067323;28;45254;-70
2023/06/07 03:00:54;;;;;;;2.13;1.92;;;24.50;37.30;;;;;;5067135;28;45636;-71
2023/06/07 03:03:21;;;;;;;1.95;1.85;;;24.50;37.30;;;;;;5065652;28;45549;-71
2023/06/07 03:05:49;;;;;;;2.28;2.08;;;24.50;37.30;;;;;;5066229;28;45283;-70
2023/06/07 03:08:16;;;;;;;2.50;2.20;;;24.50;37.40;;;;;;5065845;28;45388;-70
2023/06/07 03:10:43;;;;;;;2.35;2.00;;;24.50;37.40;;;;;;5066239;28;45668;-70
2023/06/07 03:13:10;;;;;;;1.90;1.80;;;24.50;37.40;;;;;;5065492;28;45400;-71
2023/06/07 03:15:37;;;;;;;2.33;2.13;;;24.50;37.50;;;;;;5065926;28;45239;-70
2023/06/07 03:18:04;;;;;;;4.88;1.95;;;24.50;37.50;;;;;;5066085;28;45261;-71
2023/06/07 03:20:33;;;;;;;1.98;1.80;;;24.50;37.50;;;;;;5065962;28;45315;-71
2023/06/07 03:23:02;;;;;;;2.13;2.03;;;24.40;37.50;;;;;;5065548;28;45341;-71
2023/06/07 03:25:28;;;;;;;2.75;2.03;;;24.40;37.50;;;;;;5065798;28;45269;-71
2023/06/07 03:27:56;;;;;;;2.70;2.08;;;24.40;37.50;;;;;;5065861;28;45138;-70
2023/06/07 03:30:23;;;;;;;2.05;1.95;;;24.40;37.60;;;;;;5065913;28;45433;-71
2023/06/07 03:32:50;;;;;;;2.28;2.08;;;24.40;37.60;;;;;;5065528;28;45444;-70
2023/06/07 03:35:17;;;;;;;2.80;2.08;;;24.30;37.60;;;;;;5065876;28;45455;-71
2023/06/07 03:37:44;;;;;;;2.53;2.22;;;24.30;37.60;;;;;;5065439;28;45454;-71
2023/06/07 03:40:13;;;;;;;2.13;1.92;;;24.30;37.70;;;;;;5065790;28;45328;-71
2023/06/07 03:42:40;;;;;;;1.85;1.75;;;24.30;37.70;;;;;;5065366;28;45765;-71
2023/06/07 03:45:07;;;;;;;2.10;2.00;;;24.30;37.70;;;;;;5065097;28;45391;-71
2023/06/07 03:47:34;;;;;;;2.30;2.10;;;24.20;37.70;;;;;;5064553;28;45257;-70
2023/06/07 03:50:01;;;;;;;4.78;2.05;;;24.20;37.80;;;;;;5065685;28;45242;-71
2023/06/07 03:52:28;;;;;;;2.20;2.00;;;24.20;37.80;;;;;;5065218;28;46292;-70
2023/06/07 03:54:55;;;;;;;2.05;1.90;;;24.20;37.90;;;;;;5065073;28;45795;-71
2023/06/07 03:57:23;;;;;;;2.30;2.05;;;24.20;37.80;;;;;;5065444;28;45375;-71
2023/06/07 03:59:50;;;;;;;2.40;2.20;;;24.20;37.90;;;;;;5065453;28;45312;-71
2023/06/07 04:02:17;;;;;;;2.42;2.22;;;24.20;37.90;;;;;;5064638;28;45623;-71
2023/06/07 04:04:44;;;;;;;2.30;2.10;;;24.20;37.90;;;;;;5065298;28;45440;-71
2023/06/07 04:07:11;;;;;;;2.50;2.15;;;24.20;37.90;;;;;;5065461;28;45514;-71
2023/06/07 04:09:39;;;;;;;1.95;1.73;;;24.10;37.80;;;;;;5065244;28;45298;-70
2023/06/07 04:12:07;;;;;;;1.90;1.80;;;24.10;37.90;;;;;;5064847;28;45262;-71
2023/06/07 04:14:35;;;;;;;1.88;1.77;;;24.10;37.90;;;;;;5065036;28;45496;-71
2023/06/07 04:17:03;;;;;;;2.40;2.20;;;24.10;38.00;;;;;;5065104;28;45338;-71
2023/06/07 04:19:30;;;;;;;2.25;2.05;;;24.10;38.00;;;;;;5065187;28;45275;-71
2023/06/07 04:21:56;;;;;;;2.25;2.05;;;24.10;38.00;;;;;;5064775;28;45388;-71
2023/06/07 04:24:23;;;;;;;2.45;2.25;;;24.10;38.10;;;;;;5064841;28;45629;-71
2023/06/07 04:26:53;;;;;;;2.10;1.90;;;24.10;38.10;;;;;;5064965;28;45423;-71
2023/06/07 04:29:21;;;;;;;2.95;2.13;;;24.00;38.10;;;;;;5065198;28;45327;-71
2023/06/07 04:31:52;;;;;;;2.28;2.10;;;24.00;38.10;;;;;;5064777;28;45244;-71
2023/06/07 04:34:21;;;;;;;2.75;2.13;;;24.00;38.20;;;;;;5064853;28;45317;-71
2023/06/07 04:36:49;;;;;;;2.55;2.35;;;24.00;38.20;;;;;;5068577;28;45388;-71
2023/06/07 04:39:18;;;;;;;1.80;1.70;;;24.00;38.20;;;;;;5067715;28;45307;-70
2023/06/07 04:41:45;;;;;;;2.40;2.10;;;23.90;38.20;;;;;;5066879;28;46376;-71
2023/06/07 04:44:12;;;;;;;3.55;2.00;;;23.90;38.30;;;;;;5065970;28;45305;-70
2023/06/07 04:46:40;;;;;;;2.45;2.22;;;23.90;38.30;;;;;;5065031;28;45400;-70
2023/06/07 04:49:08;;;;;;;2.22;2.05;;;23.90;38.40;;;;;;5064760;28;45371;-70
2023/06/07 04:51:36;;;;;;;2.28;2.00;;;23.90;38.40;;;;;;5064319;28;45331;-71
2023/06/07 04:54:04;;;;;;;2.15;2.00;;;23.90;38.40;;;;;;5064664;28;45331;-71
2023/06/07 04:56:31;;;;;;;2.00;1.83;;;23.90;38.40;;;;;;5064598;28;45387;-71
2023/06/07 04:58:58;;;;;;;2.30;2.10;;;23.90;38.40;;;;;;5067945;28;45364;-71
2023/06/07 05:01:25;;;;;;;2.30;1.80;;;23.90;38.40;;;;;;5068019;28;46949;-71
2023/06/07 05:03:58;;;;;;;2.15;1.95;;;23.90;38.50;;;;;;5067674;28;45337;-71
2023/06/07 05:06:28;;;;;;;2.15;1.88;;;23.90;38.50;;;;;;5067752;28;45362;-71
2023/06/07 05:08:55;;;;;;;2.30;2.10;;;23.90;38.50;;;;;;5068018;28;45420;-70
2023/06/07 05:11:22;;;;;;;2.42;2.00;;;23.90;38.50;;;;;;5067792;28;46672;-70
2023/06/07 05:13:49;;;;;;;2.38;2.03;;;23.90;38.50;;;;;;5067798;28;45264;-70
2023/06/07 05:16:16;;;;;;;2.20;2.00;;;23.90;38.50;;;;;;5067910;28;45304;-71
2023/06/07 05:18:46;;;;;;;2.10;1.95;;;23.90;38.50;;;;;;5068148;28;45372;-71
2023/06/07 05:21:13;;;;;;;2.38;2.17;;;23.90;38.50;;;;;;5067803;28;47324;-71
2023/06/07 05:23:41;;;;;;;2.45;2.17;;;23.80;38.40;;;;;;5067577;28;45292;-71
2023/06/07 05:26:08;;;;;;;2.83;2.08;;;23.80;38.50;;;;;;5067999;28;45302;-71
2023/06/07 05:28:35;;;;;;;2.00;1.90;;;23.80;38.50;;;;;;5067689;28;45419;-71
2023/06/07 05:31:02;;;;;;;2.30;2.10;;;23.80;38.50;;;;;;5067632;28;45476;-71
2023/06/07 05:33:28;;;;;;;1.77;1.67;;;23.80;38.60;;;;;;5067522;28;45257;-71
2023/06/07 05:35:55;;;;;;;2.30;2.10;;;23.80;38.60;;;;;;5067569;28;45258;-70
2023/06/07 05:38:22;;;;;;;2.47;2.28;;;23.80;38.60;;;;;;5067596;28;45243;-71
2023/06/07 05:40:50;;;;;;;2.15;1.92;;;23.80;38.60;;;;;;5067298;28;46668;-71
2023/06/07 05:43:17;;;;;;;1.98;1.80;;;23.80;38.70;;;;;;5067309;28;45425;-71
2023/06/07 05:45:44;;;;;;;2.72;1.90;;;23.80;38.70;;;;;;5067444;28;45268;-71
2023/06/07 05:48:11;;;;;;;2.80;2.22;;;23.80;38.70;;;;;;5067505;28;45253;-71
2023/06/07 05:50:38;;;;;;;1.95;1.85;;;23.80;38.70;;;;;;5067139;28;46398;-71
2023/06/07 05:53:05;;;;;;;2.22;1.90;;;23.80;38.70;;;;;;5067240;28;45364;-71
2023/06/07 05:55:32;;;;;;;2.63;1.80;;;23.80;38.70;;;;;;5067454;28;45363;-71
2023/06/07 05:58:00;;;;;;;2.17;2.00;;;23.80;38.80;;;;;;5067418;28;45487;-71
2023/06/07 06:00:27;;;;;;;2.30;2.10;;;23.80;38.70;;;;;;5067054;28;46623;-71
2023/06/07 06:02:53;;;;;;;3.22;2.08;;;23.80;38.70;;;;;;5066754;28;45262;-71
2023/06/07 06:05:23;;;;;;;2.10;1.90;;;23.80;38.80;;;;;;5067442;28;45356;-71
2023/06/07 06:07:50;;;;;;;1.90;1.70;;;23.80;38.70;;;;;;5067181;28;45673;-70
2023/06/07 06:10:17;;;;;;;2.40;1.80;;;23.80;38.70;;;;;;5065807;28;46700;-70
2023/06/07 06:12:44;;;;;;;2.20;2.00;;;23.80;38.80;;;;;;5066960;28;45270;-70
2023/06/07 06:15:12;;;;;;;2.20;2.00;;;23.80;38.70;;;;;;5066952;28;45346;-70
2023/06/07 06:17:39;;;;;;;2.00;1.90;;;23.80;38.80;;;;;;5067054;28;45320;-70
2023/06/07 06:20:07;;;;;;;3.17;1.90;;;23.90;38.80;;;;;;5066703;28;46688;-70
2023/06/07 06:22:34;;;;;;;2.25;2.03;;;23.90;38.80;;;;;;5066740;28;45434;-70
2023/06/07 06:25:01;;;;;;;2.47;2.28;;;23.90;38.80;;;;;;5067059;28;45586;-70
2023/06/07 06:27:28;;;;;;;3.47;2.42;;;23.90;38.80;;;;;;5066900;28;45312;-70
2023/06/07 06:29:55;;;;;;;2.63;1.92;;;23.90;38.80;;;;;;5066430;28;46420;-71
2023/06/07 06:32:23;;;;;;;1.85;1.75;;;23.90;38.70;;;;;;5066749;28;45249;-71
2023/06/07 06:34:50;;;;;;;2.50;2.10;;;23.90;38.80;;;;;;5066621;28;45340;-70
2023/06/07 06:37:17;;;;;;;2.72;2.05;;;23.90;38.80;;;;;;5066620;28;45482;-70
2023/06/07 06:39:46;;;;;;;3.97;2.17;;;23.90;38.80;;;;;;5066371;28;46716;-70
2023/06/07 06:42:13;;;;;;;2.35;1.95;;;23.90;38.80;;;;;;5066551;28;46617;-69
2023/06/07 06:44:40;;;;;;;2.03;1.92;;;23.90;38.80;;;;;;5066678;28;45364;-69
2023/06/07 06:47:07;;;;;;;2.70;2.05;;;24.00;38.90;;;;;;5066697;28;45453;-69
2023/06/07 06:49:35;;;;;;;1.95;1.85;;;24.00;38.80;;;;;;5066327;28;46180;-70
2023/06/07 06:52:02;;;;;;;1.95;1.85;;;24.00;38.80;;;;;;5066318;28;45342;-70
2023/06/07 06:54:29;;;;;;;2.25;1.80;;;24.00;38.80;;;;;;5066508;28;45428;-71
2023/06/07 06:56:56;;;;;;;2.13;1.90;;;24.00;38.70;;;;;;5066487;28;45652;-70
2023/06/07 06:59:23;;;;;;;3.38;2.10;;;24.10;38.80;;;;;;5066020;28;46492;-70
2023/06/07 07:01:51;;;;;;;1.92;1.80;;;24.10;38.80;;;;;;5065754;28;45328;-69
2023/06/07 07:04:18;;;;;;;1.77;1.67;;;24.10;38.80;;;;;;5066254;28;45272;-71
2023/06/07 07:06:46;;;;;;;2.17;1.98;;;24.10;38.80;;;;;;5066461;28;45478;-70
2023/06/07 07:09:13;;;;;;;2.20;2.00;;;24.10;38.80;;;;;;5065825;28;45396;-70
2023/06/07 07:11:40;;;;;;;3.05;1.88;;;24.10;38.80;;;;;;5066080;28;45341;-70
2023/06/07 07:14:07;;;;;;;2.65;2.13;;;24.10;38.80;;;;;;5066028;28;45313;-71
2023/06/07 07:16:34;;;;;;;2.05;1.88;;;24.10;38.80;;;;;;5066135;28;45380;-70
2023/06/07 07:19:00;;;;;;;2.10;1.90;;;24.10;38.80;;;;;;5065999;28;45408;-71
2023/06/07 07:21:27;;;;;;;2.00;1.80;;;24.20;38.90;;;;;;5065555;28;45317;-70
2023/06/07 07:23:56;;;;;;;2.20;2.00;;;24.20;38.80;;;;;;5065862;28;45512;-70
2023/06/07 07:26:22;;;;;;;1.90;1.80;;;24.20;38.80;;;;;;5066209;28;45300;-70
2023/06/07 07:28:49;;;;;;;2.17;1.90;;;24.20;38.80;;;;;;5065346;28;46454;-70
2023/06/07 07:31:16;;;;;;;2.03;1.83;;;24.20;38.80;;;;;;5065774;28;45341;-70
2023/06/07 07:33:43;;;;;;;2.33;2.13;;;24.20;38.80;;;;;;5065767;28;45754;-70
2023/06/07 07:36:13;;;;;;;1.90;1.77;;;24.30;38.80;;;;;;5065994;28;45383;-70
2023/06/07 07:38:40;;;;;;;2.17;1.98;;;24.30;38.70;;;;;;5065324;28;46210;-70
2023/06/07 07:41:08;;;;;;;2.20;2.00;;;24.30;38.70;;;;;;5065568;28;45383;-70
2023/06/07 07:43:35;;;;;;;2.17;1.98;;;24.30;38.70;;;;;;5065439;28;45327;-69
2023/06/07 07:46:02;;;;;;;3.92;2.03;;;24.30;38.80;;;;;;5065724;28;45243;-70
2023/06/07 07:48:28;;;;;;;2.17;1.98;;;24.40;38.80;;;;;;5065242;28;45250;-71
2023/06/07 07:50:56;;;;;;;1.98;1.88;;;24.40;38.80;;;;;;5065606;28;45377;-72
2023/06/07 07:53:23;;;;;;;3.35;2.20;;;24.40;38.70;;;;;;5065679;28;45363;-71
2023/06/07 07:55:50;;;;;;;3.85;2.33;;;24.40;38.70;;;;;;5065531;28;45375;-71
2023/06/07 07:58:18;;;;;;;2.45;2.20;;;24.50;38.70;;;;;;5065110;28;46383;-71
2023/06/07 08:00:45;;;;;;;2.40;2.20;;;24.50;38.60;;;;;;5065094;28;45257;-70
2023/06/07 08:03:12;;;;;;;3.75;1.92;;;24.50;38.60;;;;;;5064994;28;45363;-70
2023/06/07 08:05:39;;;;;;;2.15;1.95;;;24.50;38.60;;;;;;5065602;28;45419;-70
2023/06/07 08:08:06;;;;;;;2.30;2.10;;;24.50;38.50;;;;;;5064977;28;45318;-70
2023/06/07 08:10:33;;;;;;;1.95;1.85;;;24.60;38.50;;;;;;5065070;28;45323;-70
2023/06/07 08:13:00;;;;;;;2.20;2.00;;;24.60;38.50;;;;;;5065225;28;44825;-70
2023/06/07 08:15:28;;;;;;;2.78;2.00;;;24.60;38.50;;;;;;5065462;28;45438;-70
2023/06/07 08:17:55;;;;;;;1.92;1.83;;;24.60;38.50;;;;;;5064708;28;46417;-70
2023/06/07 08:20:22;;;;;;;1.85;1.75;;;24.60;38.50;;;;;;5064966;28;45270;-70
2023/06/07 08:22:50;;;;;;;2.60;1.92;;;24.70;38.50;;;;;;5064998;28;45243;-70
2023/06/07 08:25:17;;;;;;;2.80;1.95;;;24.70;38.40;;;;;;5065196;28;45374;-70
2023/06/07 08:27:44;;;;;;;2.53;2.10;;;24.70;38.40;;;;;;5064773;28;45309;-70
2023/06/07 08:30:12;;;;;;;3.92;2.10;;;24.70;38.40;;;;;;5064823;28;45362;-70
2023/06/07 08:32:41;;;;;;;3.00;2.08;;;24.70;38.40;;;;;;5068054;28;45299;-70
2023/06/07 08:35:10;;;;;;;6.50;2.17;;;24.70;38.40;;;;;;5071773;28;45526;-70
2023/06/07 08:37:37;;;;;;;2.40;1.95;;;24.80;38.40;;;;;;5071407;28;45261;-70
2023/06/07 08:40:05;;;;;;;2.55;2.25;;;24.80;38.40;;;;;;5071462;28;45141;-70
2023/06/07 08:42:32;;;;;;;2.75;2.00;;;24.80;38.30;;;;;;5071248;28;45346;-71
2023/06/07 08:45:00;;;;;;;2.45;2.10;;;24.80;38.30;;;;;;5071716;28;45289;-71
2023/06/07 08:47:27;;;;;;;2.33;2.13;;;24.80;38.30;;;;;;5071424;28;46668;-71
2023/06/07 08:49:56;;;;;;;3.08;2.30;;;24.90;38.30;;;;;;5071498;28;45375;-70
2023/06/07 08:52:23;;;;;;;3.58;2.20;;;24.90;38.20;;;;;;5071606;28;45386;-70
2023/06/07 08:54:50;;;;;;;4.50;1.90;;;25.00;38.20;;;;;;5071357;28;45537;-70
2023/06/07 08:57:17;;;;;;;3.53;2.40;;;25.00;38.20;;;;;;5071106;28;46407;-70
2023/06/07 08:59:44;;;;;;;2.10;1.85;;;25.00;38.10;;;;;;5068544;28;45262;-70
2023/06/07 09:02:12;;;;;;;2.25;2.05;;;25.00;38.10;;;;;;5072157;28;45497;-70
2023/06/07 09:04:40;;;;;;;2.50;2.00;;;25.00;38.10;;;;;;5072101;28;45386;-70
2023/06/07 09:07:08;;;;;;;3.10;1.92;;;25.00;38.10;;;;;;5071951;28;45410;-70
2023/06/07 09:09:36;;;;;;;2.75;2.03;;;25.10;38.10;;;;;;5072327;28;45430;-69
2023/06/07 09:12:03;;;;;;;2.90;2.08;;;25.10;38.10;;;;;;5072198;28;45316;-70
2023/06/07 09:14:30;;;;;;;2.65;1.90;;;25.10;38.10;;;;;;5072177;28;45388;-71
2023/06/07 09:16:58;;;;;;;2.42;2.00;;;25.20;38.10;;;;;;5072190;28;45331;-69
2023/06/07 09:19:34;;;;;;;2.20;2.00;;;25.20;38.10;;;;;;5072542;28;45335;-72
2023/06/07 09:22:02;;;;;;;1.85;1.75;;;25.20;38.10;;;;;;5069946;28;45411;-71
2023/06/07 09:24:31;;;;;;;2.38;2.10;;;25.30;38.20;;;;;;5072784;28;45465;-71
2023/06/07 09:26:58;;;;;;;2.35;2.15;;;25.30;38.10;;;;;;5072408;28;47795;-74
2023/06/07 09:29:27;;;;;;;1.95;1.85;;;25.30;38.20;;;;;;5072329;28;45340;-71
2023/06/07 09:31:54;;;;;;;2.05;1.85;;;25.30;38.10;;;;;;5072322;28;45407;-71
2023/06/07 09:34:21;;;;;;;2.28;2.08;;;25.30;38.10;;;;;;5072351;28;45312;-72
2023/06/07 09:36:56;;;;;;;2.33;2.13;;;25.40;38.10;;;;;;5072412;28;46121;-71
2023/06/07 09:39:23;;;;;;;2.20;2.00;;;25.40;38.10;;;;;;5071440;28;45778;-71
2023/06/07 09:41:52;;;;;;;2.25;2.05;;;25.40;38.10;;;;;;5072178;28;45325;-71
2023/06/07 09:44:23;;;;;;;3.67;2.22;;;25.50;38.20;;;;;;5070241;28;45436;-72
2023/06/07 09:46:50;;;;;;;2.10;1.88;;;25.50;38.20;;;;;;5068635;28;47208;-71
2023/06/07 09:49:23;;;;;;;2.42;2.22;;;25.60;38.30;;;;;;5068344;28;45392;-71
2023/06/07 09:51:50;;;;;;;6.97;2.38;;;25.60;38.30;;;;;;5068719;28;45384;-71
2023/06/07 09:54:17;;;;;;;2.83;2.15;;;25.60;38.30;;;;;;5068624;28;45588;-70
2023/06/07 09:56:44;;;;;;;2.95;1.98;;;25.60;38.40;;;;;;5068132;28;45472;-71
2023/06/07 09:59:14;;;;;;;2.60;2.00;;;25.60;38.30;;;;;;5068231;28;45375;-72
2023/06/07 10:01:42;;;;;;;2.25;1.90;;;25.70;38.50;;;;;;5068103;28;45314;-71
2023/06/07 10:04:08;;;;;;;2.10;2.00;;;25.70;38.50;;;;;;5067924;28;45414;-70
2023/06/07 10:06:38;;;;;;;2.17;2.08;;;25.80;38.60;;;;;;5067886;28;45575;-72
2023/06/07 10:09:05;;;;;;;2.20;2.00;;;25.80;38.60;;;;;;5067332;28;45346;-69
2023/06/07 10:11:33;;;;;;;2.92;2.35;;;25.80;39.30;;;;;;5067792;28;45383;-71
2023/06/07 10:14:02;;;;;;;2.05;1.85;;;25.90;39.30;;;;;;5068049;28;45374;-71
2023/06/07 10:16:31;;;;;;;1.92;1.80;;;25.90;38.60;;;;;;5068024;28;46402;-70
2023/06/07 10:18:58;;;;;;;1.95;1.80;;;25.90;38.60;;;;;;5067617;28;45379;-71
2023/06/07 10:21:25;;;;;;;2.40;2.20;;;25.90;38.50;;;;;;5067680;28;45434;-69
2023/06/07 10:23:54;;;;;;;2.15;1.95;;;26.00;38.60;;;;;;5067819;28;45218;-70
2023/06/07 10:26:25;;;;;;;2.60;1.80;;;26.00;38.60;;;;;;5067420;28;46906;-69
2023/06/07 10:28:53;;;;;;;2.70;2.17;;;26.00;38.60;;;;;;5067659;28;45356;-69
2023/06/07 10:31:20;;;;;;;3.58;2.35;;;26.10;38.70;;;;;;5067918;28;45387;-70
2023/06/07 10:33:50;;;;;;;1.90;1.80;;;26.10;38.70;;;;;;5067629;28;45383;-70
2023/06/07 10:36:17;;;;;;;2.33;2.13;;;26.10;38.70;;;;;;5067912;28;45435;-69
2023/06/07 10:38:44;;;;;;;2.08;1.88;;;26.10;38.60;;;;;;5067226;28;45258;-70
2023/06/07 10:41:11;;;;;;;2.10;1.90;;;26.20;38.70;;;;;;5067655;28;45288;-69
2023/06/07 10:43:38;;;;;;;2.38;2.00;;;26.20;38.70;;;;;;5067615;28;45343;-70
2023/06/07 10:46:19;;;;;;;2.15;1.98;;;26.30;38.80;;;;;;5067641;28;46406;-70
2023/06/07 10:48:48;;;;;;;1.90;1.70;;;26.30;38.70;;;;;;5067479;28;45521;-70
2023/06/07 10:51:15;;;;;;;2.63;1.88;;;26.30;38.70;;;;;;5067655;28;45283;-70
2023/06/07 10:53:56;;;;;;;2.80;1.98;;;26.40;38.70;;;;;;5067630;28;45322;-70
2023/06/07 10:56:30;;;;;;;2.17;1.85;;;26.40;38.60;;;;;;5066680;28;45320;-70
2023/06/07 10:58:59;;;;;;;2.13;1.92;;;26.50;38.70;;;;;;5067653;28;45299;-70
2023/06/07 11:01:26;;;;;;;3.00;1.92;;;26.50;38.50;;;;;;5067548;28;45417;-70
2023/06/07 11:03:54;;;;;;;2.20;1.92;;;26.50;38.50;;;;;;5067319;28;45456;-70
2023/06/07 11:06:21;;;;;;;3.60;2.17;;;26.50;38.50;;;;;;5068062;28;45614;-70
2023/06/07 11:08:49;;;;;;;2.50;2.30;;;26.60;38.40;;;;;;5067778;28;45356;-70
2023/06/07 11:11:51;;;;;;;2.28;2.08;;;26.60;38.40;;;;;;5067956;28;45429;-70
2023/06/07 11:14:17;;;;;;;2.63;2.15;;;26.70;38.40;;;;;;5070195;28;44719;-69
2023/06/07 11:16:44;;;;;;;2.55;2.33;;;26.70;38.30;;;;;;5069256;28;45394;-70
2023/06/07 11:19:16;;;;;;;1.90;1.70;;;26.80;38.20;;;;;;5067084;28;45576;-70
2023/06/07 11:22:00;;;;;;;3.33;1.98;;;26.80;38.10;;;;;;5066698;28;45352;-71
2023/06/07 11:24:27;;;;;;;3.30;2.28;;;26.90;38.10;;;;;;5067320;28;45546;-69
2023/06/07 11:26:53;;;;;;;3.08;2.13;;;26.90;38.00;;;;;;5066548;28;46394;-70
2023/06/07 11:29:21;;;;;;;3.42;2.17;;;27.00;38.60;;;;;;5067045;28;45368;-70
2023/06/07 11:31:47;;;;;;;2.30;1.75;;;27.00;37.90;;;;;;5067605;28;45440;-70
2023/06/07 11:34:16;;;;;;;2.88;2.03;;;27.00;37.70;;;;;;5067316;28;45313;-72
2023/06/07 11:36:43;;;;;;;2.53;2.30;;;27.10;37.90;;;;;;5067017;28;46821;-70
2023/06/07 11:39:16;;;;;;;2.28;2.08;;;27.10;37.80;;;;;;5066992;28;45404;-70
2023/06/07 11:41:43;;;;;;;1.85;1.75;;;27.20;37.60;;;;;;5067500;28;45131;-70
2023/06/07 11:44:10;;;;;;;2.10;2.00;;;27.20;37.60;;;;;;5066993;28;45379;-70
2023/06/07 11:46:37;;;;;;;2.13;2.00;;;27.30;37.50;;;;;;5067012;28;45411;-70
2023/06/07 11:49:05;;;;;;;2.88;2.20;;;27.30;37.50;;;;;;5066746;28;45253;-71
2023/06/07 11:51:33;;;;;;;2.13;1.95;;;27.40;37.40;;;;;;5067049;28;45376;-70
2023/06/07 11:54:00;;;;;;;2.40;2.00;;;27.40;37.40;;;;;;5067148;28;45419;-70
2023/06/07 11:56:28;;;;;;;2.40;2.20;;;27.50;37.40;;;;;;5066729;28;45504;-71
2023/06/07 11:58:55;;;;;;;2.17;1.98;;;27.50;37.30;;;;;;5063882;28;45436;-70
2023/06/07 12:01:22;;;;;;;2.20;2.00;;;27.60;37.20;;;;;;5066991;28;45543;-70
2023/06/07 12:03:49;;;;;;;2.53;2.08;;;27.70;37.20;;;;;;5066866;28;45307;-70
2023/06/07 12:06:16;;;;;;;2.95;2.25;;;27.70;37.10;;;;;;5065827;28;47034;-70
2023/06/07 12:08:45;;;;;;;2.13;1.73;;;27.70;37.00;;;;;;5065533;28;45407;-70
2023/06/07 12:11:12;;;;;;;1.80;1.70;;;27.80;37.00;;;;;;5066637;28;45389;-70
2023/06/07 12:13:40;;;;;;;2.10;1.90;;;27.80;36.90;;;;;;5065846;28;45502;-70
2023/06/07 12:16:08;;;;;;;2.78;2.10;;;27.90;36.90;;;;;;5066293;28;45522;-70
2023/06/07 12:18:35;;;;;;;1.90;1.75;;;27.90;36.80;;;;;;5066121;28;45380;-69
2023/06/07 12:21:02;;;;;;;2.63;1.95;;;28.00;36.80;;;;;;5066234;28;45301;-70
2023/06/07 12:23:29;;;;;;;2.00;1.80;;;28.10;36.80;;;;;;5066423;28;45608;-70
2023/06/07 12:26:07;;;;;;;2.20;2.00;;;28.10;36.70;;;;;;5066005;28;47432;-70
2023/06/07 12:28:34;;;;;;;2.40;2.20;;;28.10;36.50;;;;;;5065970;28;45310;-70
2023/06/07 12:31:01;;;;;;;2.38;2.17;;;28.20;36.50;;;;;;5066147;28;45422;-70
2023/06/07 12:33:28;;;;;;;2.53;2.22;;;28.30;36.50;;;;;;5066194;28;45225;-70
2023/06/07 12:35:57;;;;;;;2.28;1.95;;;28.30;36.40;;;;;;5066482;28;47933;-70
2023/06/07 12:38:24;;;;;;;3.22;2.28;;;28.40;36.40;;;;;;5065791;28;46460;-70
2023/06/07 12:40:51;;;;;;;2.25;1.98;;;28.40;36.30;;;;;;5066132;28;45309;-70
2023/06/07 12:43:19;;;;;;;2.13;2.03;;;28.50;36.30;;;;;;5066183;28;45248;-70
2023/06/07 12:45:46;;;;;;;2.95;2.00;;;28.60;36.20;;;;;;5065681;28;45360;-70
2023/06/07 12:48:13;;;;;;;2.05;1.80;;;28.60;36.20;;;;;;5065473;28;45415;-70
2023/06/07 12:50:40;;;;;;;2.35;2.10;;;28.60;36.10;;;;;;5066098;28;45270;-70